Nearby METAR Reports

 

KBFI - Seattle/Boeing, Washington, USA
Distance from station: S 10mi, 16km
Updated: Mon, 30-Nov-2020 4:53am PST
Light rain, Overcast
Light rain, Overcast
 Wind from SSE
Wind: SSE 16 mph , 26 km/h
Temperature: 45°F , 7°C
Wind Chill: 38°F , 3°C
Dew Point: 43°F , 6°C
Humidity: 93%
Barometer: 29.87 inHg , 1011.5 hPa
Summary: Light rain
Clouds: Overcast
Visibility: 10 miles , 16 km
Cloud details: Few Clouds 1600 ft
Mostly cloudy 4900 ft
Overcast 7000 ft
2020/11/30 12:53 KBFI 301253Z 16014KT 10SM -RA FEW016 BKN049 OVC070 07/06 A2987 RMK AO2 SLP114 P0012 T00720056
KRNT - Renton, Washington, USA
Distance from station: SSE 14mi, 23km
Updated: Mon, 30-Nov-2020 5:16am PST
Light rain, Overcast
Light rain, Overcast
 Wind from S
Wind: S 14 mph , 22 km/h, Gust: 20 mph , 31 km/h
Temperature: 45°F , 7°C
Wind Chill: 39°F , 4°C
Dew Point: 43°F , 6°C
Humidity: 93%
Barometer: 29.87 inHg , 1011.5 hPa
Summary: Light rain
Clouds: Overcast
Visibility: 10 miles , 16 km
Cloud details: Few Clouds 1400 ft
Mostly cloudy 4100 ft
Overcast 8000 ft
2020/11/30 13:16 KRNT 301316Z AUTO 17012G17KT 10SM -RA FEW014 BKN041 OVC080 07/06 A2987 RMK AO2 WSHFT 1244 P0000 T00670061 $
 
KPAE - Everett, Washington, USA
Distance from station: N 15mi, 25km
Updated: Mon, 30-Nov-2020 4:53am PST
Light rain, Overcast
Light rain, Overcast
 Wind from SE
Wind: SE 20 mph , 31 km/h, Gust: 28 mph , 44 km/h
Temperature: 43°F , 6°C
Wind Chill: 34°F , 1°C
Dew Point: 39°F , 4°C
Humidity: 87%
Barometer: 29.82 inHg , 1009.8 hPa
Summary: Light rain
Clouds: Overcast
Visibility: 10 miles , 16 km
Cloud details: Few Clouds 2400 ft
Mostly cloudy 4300 ft
Overcast 8000 ft
2020/11/30 12:53 KPAE 301253Z 14017G24KT 10SM -RA FEW024 BKN043 OVC080 06/04 A2982 RMK AO2 PK WND 14030/1227 SLP099 P0009 T00610044
KSEA - Seattle/Metro, Washington, USA
Distance from station: S 17mi, 27km
Updated: Mon, 30-Nov-2020 5:06am PST
Light rain, Overcast
Light rain, Overcast
 Wind from S
Wind: S 20 mph , 31 km/h, Gust: 29 mph , 46 km/h
Temperature: 46°F , 8°C
Wind Chill: 38°F , 3°C
Dew Point: 43°F , 6°C
Humidity: 87%
Barometer: 29.86 inHg , 1011.2 hPa
Summary: Light rain
Clouds: Overcast
Visibility: 10 miles , 16 km
Cloud details: Partly cloudy 1800 ft
Mostly cloudy 4700 ft
Overcast 8000 ft
2020/11/30 13:06 KSEA 301306Z 17017G25KT 10SM -RA SCT018 BKN047 OVC080 08/06 A2986 RMK AO2 P0000 T00780061 $
 
KPWT - Bremerton Ntnl, Washington, USA
Distance from station: SW 24mi, 39km
Updated: Mon, 30-Nov-2020 5:16am PST
Light rain, Overcast
Light rain, Overcast
 Wind from S
Wind: S 16 mph , 26 km/h, Gust: 22 mph , 35 km/h
Temperature: 43°F , 6°C
Wind Chill: 35°F , 2°C
Dew Point: 43°F , 6°C
Humidity: 100%
Barometer: 29.83 inHg , 1010.2 hPa
Summary: Light rain
Clouds: Overcast
Visibility: 10 miles , 16 km
Cloud details: Mostly cloudy 700 ft
Overcast 1100 ft
2020/11/30 13:16 KPWT 301316Z AUTO 19014G19KT 10SM -RA BKN007 OVC011 06/06 A2983 RMK AO2 CIG 005V009 P0000 $
KTIW - Tacoma, Washington, USA
Distance from station: SSW 32mi, 52km
Updated: Mon, 30-Nov-2020 4:53am PST
Light rain, Overcast
Light rain, Overcast
 Wind from SSW
Wind: SSW 18 mph , 30 km/h, Gust: 29 mph , 46 km/h
Temperature: 45°F , 7°C
Wind Chill: 37°F , 3°C
Dew Point: 41°F , 5°C
Humidity: 87%
Barometer: 29.86 inHg , 1011.2 hPa
Summary: Light rain
Clouds: Overcast
Visibility: 10 miles , 16 km
Cloud details: Few Clouds 1800 ft
Overcast 4200 ft
2020/11/30 12:53 KTIW 301253Z AUTO 20016G25KT 10SM -RA FEW018 OVC042 07/05 A2986 RMK AO2 SLP114 P0008 T00720050
 
KAWO - Arlington Muni, Washington, USA
Distance from station: N 33mi, 54km
Updated: Mon, 30-Nov-2020 5:17am PST
Overcast
Overcast
 Wind from SE
Wind: SE 22 mph , 35 km/h, Gust: 31 mph , 50 km/h
Temperature: 46°F , 8°C
Wind Chill: 38°F , 3°C
Dew Point: 43°F , 6°C
Humidity: 87%
Barometer: 29.81 inHg , 1009.5 hPa
Clouds: Overcast
Visibility: 10 miles , 16 km
Cloud details: Mostly cloudy 2600 ft
Mostly cloudy 3900 ft
Overcast 4600 ft
2020/11/30 13:17 KAWO 301317Z AUTO 14019G27KT 10SM BKN026 BKN039 OVC046 08/06 A2981 RMK AO2 PK WND 16027/1317 RAE12 P0005
KTCM - Tacoma/Mc Chord, Washington, USA
Distance from station: S 41mi, 65km
Updated: Mon, 30-Nov-2020 5:13am PST
Light rain, Overcast
Light rain, Overcast
 Wind from S
Wind: S 15 mph , 24 km/h, Gust: 24 mph , 39 km/h
Temperature: 46°F , 8°C
Wind Chill: 40°F , 4°C
Dew Point: 43°F , 6°C
Humidity: 87%
Barometer: 29.89 inHg , 1012.2 hPa
Summary: Light rain
Clouds: Overcast
Visibility: 10 miles , 16 km
Cloud details: Mostly cloudy 2900 ft
Overcast 3800 ft
2020/11/30 13:13 KTCM 301313Z AUTO 17013G21KT 10SM -RA BKN029 OVC038 08/06 A2989 RMK AO2 CIG 029V040 CIG 027 RWY34 SLP127 $
 
KPLU - Puyallup/Thun, Washington, USA
Distance from station: S 41mi, 66km
Updated: Mon, 30-Nov-2020 4:55am PST
Light drizzle, Overcast
Light drizzle, Overcast
 Wind from S
Wind: S 10 mph , 17 km/h, Gust: 24 mph , 39 km/h
Temperature: 45°F , 7°C
Wind Chill: 40°F , 4°C
Dew Point: 43°F , 6°C
Humidity: 93%
Barometer: 29.89 inHg , 1012.2 hPa
Summary: Light Drizzle
Clouds: Overcast
Visibility: 10 miles , 16 km
Cloud details: Overcast 3500 ft
2020/11/30 12:55 KPLU 301255Z AUTO 18009G21KT 10SM -DZ OVC035 07/06 A2989 RMK AO2
KGRF - Fort Lewis/Gray, Washington, USA
Distance from station: SSW 45mi, 72km
Updated: Mon, 30-Nov-2020 4:58am PST
Light rain, Overcast
Light rain, Overcast
 Wind from SE
Wind: SE 13 mph , 20 km/h
Temperature: 46°F , 8°C
Wind Chill: 40°F , 4°C
Dew Point: 46°F , 8°C
Humidity: 100%
Barometer: 29.87 inHg , 1011.5 hPa
Summary: Light rain
Clouds: Overcast
Visibility: 10 miles , 16 km
Cloud details: Mostly cloudy 2800 ft
Overcast 3900 ft
2020/11/30 12:58 KGRF 301258Z 14011KT 10SM -RA BKN028 OVC039 08/08 A2987 RMK AO2A CIG 028V036 SLP121 P0008 T00760076 $
 
KNUW - Whidbey Is. Nas, Washington, USA
Distance from station: NNW 48mi, 77km
Updated: Mon, 30-Nov-2020 4:56am PST
Overcast
Overcast
 Wind from SE
Wind: SE 32 mph , 52 km/h, Gust: 41 mph , 67 km/h
Temperature: 46°F , 8°C
Wind Chill: 36°F , 2°C
Dew Point: 39°F , 4°C
Humidity: 76%
Barometer: 29.78 inHg , 1008.5 hPa
Clouds: Overcast
Visibility: 10 miles , 16 km
Cloud details: Partly cloudy 1000 ft
Mostly cloudy 2000 ft
Overcast 11000 ft
2020/11/30 12:56 KNUW 301256Z 14028G36KT 10SM SCT010 BKN020 OVC110 08/04 A2978 RMK AO2 PK WND 14036/1227 SLP084 T00830044
KSHN - Shelton, Washington, USA
Distance from station: SW 50mi, 80km
Updated: Mon, 30-Nov-2020 4:53am PST
Overcast
Overcast
 Wind from S
Wind: S 18 mph , 30 km/h, Gust: 22 mph , 35 km/h
Temperature: 46°F , 8°C
Wind Chill: 39°F , 4°C
Dew Point: 45°F , 7°C
Humidity: 93%
Barometer: 29.80 inHg , 1009.1 hPa
Clouds: Overcast
Visibility: 10 miles , 16 km
Cloud details: Few Clouds 1500 ft
Mostly cloudy 2300 ft
Overcast 3400 ft
2020/11/30 12:53 KSHN 301253Z AUTO 19016G19KT 10SM FEW015 BKN023 OVC034 08/07 A2980 RMK AO2 RAE29 SLP096 P0001 T00830072